sensor_id;sensor_type;location;lat;lon;timestamp;temperature;humidity
5588;DHT22;2816;49.778;9.986;2023-07-29T00:01:27;18.30;99.90
5588;DHT22;2816;49.778;9.986;2023-07-29T00:03:54;18.20;99.90
5588;DHT22;2816;49.778;9.986;2023-07-29T00:06:21;18.20;99.90
5588;DHT22;2816;49.778;9.986;2023-07-29T00:08:48;18.30;99.90
5588;DHT22;2816;49.778;9.986;2023-07-29T00:11:17;18.20;99.90
5588;DHT22;2816;49.778;9.986;2023-07-29T00:13:44;18.20;99.90
5588;DHT22;2816;49.778;9.986;2023-07-29T00:16:12;18.20;99.90
5588;DHT22;2816;49.778;9.986;2023-07-29T00:18:41;18.20;99.90
5588;DHT22;2816;49.778;9.986;2023-07-29T00:21:08;18.10;99.90
5588;DHT22;2816;49.778;9.986;2023-07-29T00:23:35;18.20;99.90
5588;DHT22;2816;49.778;9.986;2023-07-29T00:26:02;18.10;99.90
5588;DHT22;2816;49.778;9.986;2023-07-29T00:28:30;18.10;99.90
5588;DHT22;2816;49.778;9.986;2023-07-29T00:30:57;18.10;99.90
5588;DHT22;2816;49.778;9.986;2023-07-29T00:33:24;18.10;99.90
5588;DHT22;2816;49.778;9.986;2023-07-29T00:35:51;18.10;99.90
5588;DHT22;2816;49.778;9.986;2023-07-29T00:38:18;18.10;99.90
5588;DHT22;2816;49.778;9.986;2023-07-29T00:40:45;18.10;99.90
5588;DHT22;2816;49.778;9.986;2023-07-29T00:43:12;18.10;99.90
5588;DHT22;2816;49.778;9.986;2023-07-29T00:45:43;18.10;99.90
5588;DHT22;2816;49.778;9.986;2023-07-29T00:48:11;18.10;99.90
5588;DHT22;2816;49.778;9.986;2023-07-29T00:50:38;18.10;99.90
5588;DHT22;2816;49.778;9.986;2023-07-29T00:53:05;18.00;99.90
5588;DHT22;2816;49.778;9.986;2023-07-29T00:55:32;18.00;99.90
5588;DHT22;2816;49.778;9.986;2023-07-29T00:58:00;18.00;99.90
5588;DHT22;2816;49.778;9.986;2023-07-29T01:00:27;18.00;99.90
5588;DHT22;2816;49.778;9.986;2023-07-29T01:02:55;18.10;99.90
5588;DHT22;2816;49.778;9.986;2023-07-29T01:05:22;18.10;99.90
5588;DHT22;2816;49.778;9.986;2023-07-29T01:07:57;18.10;99.90
5588;DHT22;2816;49.778;9.986;2023-07-29T01:10:31;18.10;99.90
5588;DHT22;2816;49.778;9.986;2023-07-29T01:13:06;18.00;99.90
5588;DHT22;2816;49.778;9.986;2023-07-29T01:15:42;18.10;99.90
5588;DHT22;2816;49.778;9.986;2023-07-29T01:18:18;18.00;99.90
5588;DHT22;2816;49.778;9.986;2023-07-29T01:20:46;18.00;99.90
5588;DHT22;2816;49.778;9.986;2023-07-29T01:23:16;18.00;99.90
5588;DHT22;2816;49.778;9.986;2023-07-29T01:25:44;18.00;99.90
5588;DHT22;2816;49.778;9.986;2023-07-29T01:28:11;17.90;99.90
5588;DHT22;2816;49.778;9.986;2023-07-29T01:30:40;18.00;99.90
5588;DHT22;2816;49.778;9.986;2023-07-29T01:33:10;17.90;99.90
5588;DHT22;2816;49.778;9.986;2023-07-29T01:35:45;17.90;99.90
5588;DHT22;2816;49.778;9.986;2023-07-29T01:38:17;17.80;99.90
5588;DHT22;2816;49.778;9.986;2023-07-29T01:40:46;17.80;99.90
5588;DHT22;2816;49.778;9.986;2023-07-29T01:43:14;17.80;99.90
5588;DHT22;2816;49.778;9.986;2023-07-29T01:45:41;17.80;99.90
5588;DHT22;2816;49.778;9.986;2023-07-29T01:48:08;17.80;99.90
5588;DHT22;2816;49.778;9.986;2023-07-29T01:50:35;17.80;99.90
5588;DHT22;2816;49.778;9.986;2023-07-29T01:53:02;17.70;99.90
5588;DHT22;2816;49.778;9.986;2023-07-29T01:55:29;17.70;99.90
5588;DHT22;2816;49.778;9.986;2023-07-29T01:57:57;17.70;99.90
5588;DHT22;2816;49.778;9.986;2023-07-29T02:00:24;17.70;99.90
5588;DHT22;2816;49.778;9.986;2023-07-29T02:02:51;17.70;99.90
5588;DHT22;2816;49.778;9.986;2023-07-29T02:05:18;17.60;99.90
5588;DHT22;2816;49.778;9.986;2023-07-29T02:07:45;17.60;99.90
5588;DHT22;2816;49.778;9.986;2023-07-29T02:10:12;17.70;99.90
5588;DHT22;2816;49.778;9.986;2023-07-29T02:12:39;17.70;99.90
5588;DHT22;2816;49.778;9.986;2023-07-29T02:15:08;17.70;99.90
5588;DHT22;2816;49.778;9.986;2023-07-29T02:17:36;17.60;99.90
5588;DHT22;2816;49.778;9.986;2023-07-29T02:20:04;17.60;99.90
5588;DHT22;2816;49.778;9.986;2023-07-29T02:22:31;17.70;99.90
5588;DHT22;2816;49.778;9.986;2023-07-29T02:24:58;17.70;99.90
5588;DHT22;2816;49.778;9.986;2023-07-29T02:27:25;17.70;99.90
5588;DHT22;2816;49.778;9.986;2023-07-29T02:29:52;17.70;99.90
5588;DHT22;2816;49.778;9.986;2023-07-29T02:32:21;17.70;99.90
5588;DHT22;2816;49.778;9.986;2023-07-29T02:34:49;17.70;99.90
5588;DHT22;2816;49.778;9.986;2023-07-29T02:37:16;17.70;99.90
5588;DHT22;2816;49.778;9.986;2023-07-29T02:39:43;17.60;99.90
5588;DHT22;2816;49.778;9.986;2023-07-29T02:42:10;17.60;99.90
5588;DHT22;2816;49.778;9.986;2023-07-29T02:44:37;17.50;99.90
5588;DHT22;2816;49.778;9.986;2023-07-29T02:47:04;17.50;99.90
5588;DHT22;2816;49.778;9.986;2023-07-29T02:49:32;17.50;99.90
5588;DHT22;2816;49.778;9.986;2023-07-29T02:51:59;17.50;99.90
5588;DHT22;2816;49.778;9.986;2023-07-29T02:54:26;17.50;99.90
5588;DHT22;2816;49.778;9.986;2023-07-29T02:56:53;17.50;99.90
5588;DHT22;2816;49.778;9.986;2023-07-29T02:59:20;17.50;99.90
5588;DHT22;2816;49.778;9.986;2023-07-29T03:01:47;17.60;99.90
5588;DHT22;2816;49.778;9.986;2023-07-29T03:04:13;17.70;99.90
5588;DHT22;2816;49.778;9.986;2023-07-29T03:06:42;17.70;99.90
5588;DHT22;2816;49.778;9.986;2023-07-29T03:09:09;17.70;99.90
5588;DHT22;2816;49.778;9.986;2023-07-29T03:11:36;17.70;99.90
5588;DHT22;2816;49.778;9.986;2023-07-29T03:14:03;17.80;99.90
5588;DHT22;2816;49.778;9.986;2023-07-29T03:16:30;17.80;99.90
5588;DHT22;2816;49.778;9.986;2023-07-29T03:18:57;17.80;99.90
5588;DHT22;2816;49.778;9.986;2023-07-29T03:21:25;17.80;99.90
5588;DHT22;2816;49.778;9.986;2023-07-29T03:23:54;17.90;99.90
5588;DHT22;2816;49.778;9.986;2023-07-29T03:26:21;17.90;99.90
5588;DHT22;2816;49.778;9.986;2023-07-29T03:28:48;17.80;99.90
5588;DHT22;2816;49.778;9.986;2023-07-29T03:31:14;17.90;99.90
5588;DHT22;2816;49.778;9.986;2023-07-29T03:33:41;17.90;99.90
5588;DHT22;2816;49.778;9.986;2023-07-29T03:36:08;17.90;99.90
5588;DHT22;2816;49.778;9.986;2023-07-29T03:38:35;17.90;99.90
5588;DHT22;2816;49.778;9.986;2023-07-29T03:41:07;17.90;99.90
5588;DHT22;2816;49.778;9.986;2023-07-29T03:43:34;17.90;99.90
5588;DHT22;2816;49.778;9.986;2023-07-29T03:46:01;17.90;99.90
5588;DHT22;2816;49.778;9.986;2023-07-29T03:48:28;18.00;99.90
5588;DHT22;2816;49.778;9.986;2023-07-29T03:50:56;18.00;99.90
5588;DHT22;2816;49.778;9.986;2023-07-29T03:53:23;18.00;99.90
5588;DHT22;2816;49.778;9.986;2023-07-29T03:55:50;18.00;99.90
5588;DHT22;2816;49.778;9.986;2023-07-29T03:58:19;18.00;99.90
5588;DHT22;2816;49.778;9.986;2023-07-29T04:00:46;18.00;99.90
5588;DHT22;2816;49.778;9.986;2023-07-29T04:03:12;17.90;99.90
5588;DHT22;2816;49.778;9.986;2023-07-29T04:05:39;18.00;99.90
5588;DHT22;2816;49.778;9.986;2023-07-29T04:08:06;17.90;99.90
5588;DHT22;2816;49.778;9.986;2023-07-29T04:10:33;17.90;99.90
5588;DHT22;2816;49.778;9.986;2023-07-29T04:13:01;17.90;99.90
5588;DHT22;2816;49.778;9.986;2023-07-29T04:15:29;17.90;99.90
5588;DHT22;2816;49.778;9.986;2023-07-29T04:17:56;17.90;99.90
5588;DHT22;2816;49.778;9.986;2023-07-29T04:20:23;17.90;99.90
5588;DHT22;2816;49.778;9.986;2023-07-29T04:22:50;17.90;99.90
5588;DHT22;2816;49.778;9.986;2023-07-29T04:25:17;17.90;99.90
5588;DHT22;2816;49.778;9.986;2023-07-29T04:27:43;17.90;99.90
5588;DHT22;2816;49.778;9.986;2023-07-29T04:30:11;17.90;99.90
5588;DHT22;2816;49.778;9.986;2023-07-29T04:32:39;17.90;99.90
5588;DHT22;2816;49.778;9.986;2023-07-29T04:35:08;17.90;99.90
5588;DHT22;2816;49.778;9.986;2023-07-29T04:37:34;17.90;99.90
5588;DHT22;2816;49.778;9.986;2023-07-29T04:40:01;17.90;99.90
5588;DHT22;2816;49.778;9.986;2023-07-29T04:42:29;17.90;99.90
5588;DHT22;2816;49.778;9.986;2023-07-29T04:44:55;17.90;99.90
5588;DHT22;2816;49.778;9.986;2023-07-29T04:47:22;17.90;99.90
5588;DHT22;2816;49.778;9.986;2023-07-29T04:49:51;17.90;99.90
5588;DHT22;2816;49.778;9.986;2023-07-29T04:52:18;17.90;99.90
5588;DHT22;2816;49.778;9.986;2023-07-29T04:54:45;17.90;99.90
5588;DHT22;2816;49.778;9.986;2023-07-29T04:57:12;17.80;99.90
5588;DHT22;2816;49.778;9.986;2023-07-29T04:59:39;17.80;99.90
5588;DHT22;2816;49.778;9.986;2023-07-29T05:02:06;17.80;99.90
5588;DHT22;2816;49.778;9.986;2023-07-29T05:04:33;17.90;99.90
5588;DHT22;2816;49.778;9.986;2023-07-29T05:07:01;17.90;99.90
5588;DHT22;2816;49.778;9.986;2023-07-29T05:09:28;18.00;99.90
5588;DHT22;2816;49.778;9.986;2023-07-29T05:11:55;17.90;99.90
5588;DHT22;2816;49.778;9.986;2023-07-29T05:14:22;17.90;99.90
5588;DHT22;2816;49.778;9.986;2023-07-29T05:16:49;17.90;99.90
5588;DHT22;2816;49.778;9.986;2023-07-29T05:19:16;18.00;99.90
5588;DHT22;2816;49.778;9.986;2023-07-29T05:21:43;18.00;99.90
5588;DHT22;2816;49.778;9.986;2023-07-29T05:24:12;18.00;99.90
5588;DHT22;2816;49.778;9.986;2023-07-29T05:26:38;18.10;99.90
5588;DHT22;2816;49.778;9.986;2023-07-29T05:29:05;18.00;99.90
5588;DHT22;2816;49.778;9.986;2023-07-29T05:31:32;18.00;99.90
5588;DHT22;2816;49.778;9.986;2023-07-29T05:33:59;18.00;99.90
5588;DHT22;2816;49.778;9.986;2023-07-29T05:36:26;18.00;99.90
5588;DHT22;2816;49.778;9.986;2023-07-29T05:38:53;18.00;99.90
5588;DHT22;2816;49.778;9.986;2023-07-29T05:41:21;18.00;99.90
5588;DHT22;2816;49.778;9.986;2023-07-29T05:43:48;18.00;99.90
5588;DHT22;2816;49.778;9.986;2023-07-29T05:46:15;18.00;99.90
5588;DHT22;2816;49.778;9.986;2023-07-29T05:48:42;18.10;99.90
5588;DHT22;2816;49.778;9.986;2023-07-29T05:51:09;18.10;99.90
5588;DHT22;2816;49.778;9.986;2023-07-29T05:53:36;18.10;99.90
5588;DHT22;2816;49.778;9.986;2023-07-29T05:56:03;18.10;99.90
5588;DHT22;2816;49.778;9.986;2023-07-29T05:58:31;18.10;99.90
5588;DHT22;2816;49.778;9.986;2023-07-29T06:00:58;18.10;99.90
5588;DHT22;2816;49.778;9.986;2023-07-29T06:03:25;18.10;99.90
5588;DHT22;2816;49.778;9.986;2023-07-29T06:05:52;18.10;99.90
5588;DHT22;2816;49.778;9.986;2023-07-29T06:08:19;18.10;99.90
5588;DHT22;2816;49.778;9.986;2023-07-29T06:10:46;18.20;99.90
5588;DHT22;2816;49.778;9.986;2023-07-29T06:13:13;18.10;99.90
5588;DHT22;2816;49.778;9.986;2023-07-29T06:15:41;18.10;99.90
5588;DHT22;2816;49.778;9.986;2023-07-29T06:18:08;18.10;99.90
5588;DHT22;2816;49.778;9.986;2023-07-29T06:20:35;18.10;99.90
5588;DHT22;2816;49.778;9.986;2023-07-29T06:23:02;18.20;99.90
5588;DHT22;2816;49.778;9.986;2023-07-29T06:25:28;18.20;99.90
5588;DHT22;2816;49.778;9.986;2023-07-29T06:27:55;18.10;99.90
5588;DHT22;2816;49.778;9.986;2023-07-29T06:30:23;18.10;99.90
5588;DHT22;2816;49.778;9.986;2023-07-29T06:32:52;18.10;99.90
5588;DHT22;2816;49.778;9.986;2023-07-29T06:35:19;18.10;99.90
5588;DHT22;2816;49.778;9.986;2023-07-29T06:37:46;18.10;99.90
5588;DHT22;2816;49.778;9.986;2023-07-29T06:40:13;18.10;99.90
5588;DHT22;2816;49.778;9.986;2023-07-29T06:42:40;18.20;99.90
5588;DHT22;2816;49.778;9.986;2023-07-29T06:45:08;18.20;99.90
5588;DHT22;2816;49.778;9.986;2023-07-29T06:47:35;18.20;99.90
5588;DHT22;2816;49.778;9.986;2023-07-29T06:50:04;18.20;99.90
5588;DHT22;2816;49.778;9.986;2023-07-29T06:52:31;18.20;99.90
5588;DHT22;2816;49.778;9.986;2023-07-29T06:54:58;18.20;99.90
5588;DHT22;2816;49.778;9.986;2023-07-29T06:57:25;18.20;99.90
5588;DHT22;2816;49.778;9.986;2023-07-29T06:59:52;18.20;99.90
5588;DHT22;2816;49.778;9.986;2023-07-29T07:02:19;18.20;99.90
5588;DHT22;2816;49.778;9.986;2023-07-29T07:04:46;18.30;99.90
5588;DHT22;2816;49.778;9.986;2023-07-29T07:07:15;18.30;99.90
5588;DHT22;2816;49.778;9.986;2023-07-29T07:09:42;18.20;99.90
5588;DHT22;2816;49.778;9.986;2023-07-29T07:12:09;18.30;99.90
5588;DHT22;2816;49.778;9.986;2023-07-29T07:14:37;18.20;99.90
5588;DHT22;2816;49.778;9.986;2023-07-29T07:17:05;18.20;99.90
5588;DHT22;2816;49.778;9.986;2023-07-29T07:19:31;18.30;99.90
5588;DHT22;2816;49.778;9.986;2023-07-29T07:21:58;18.30;99.90
5588;DHT22;2816;49.778;9.986;2023-07-29T07:24:27;18.30;99.90
5588;DHT22;2816;49.778;9.986;2023-07-29T07:26:53;18.20;99.90
5588;DHT22;2816;49.778;9.986;2023-07-29T07:29:20;18.30;99.90
5588;DHT22;2816;49.778;9.986;2023-07-29T07:31:50;18.20;99.90
5588;DHT22;2816;49.778;9.986;2023-07-29T07:34:18;18.30;99.90
5588;DHT22;2816;49.778;9.986;2023-07-29T07:36:44;18.30;99.90
5588;DHT22;2816;49.778;9.986;2023-07-29T07:39:11;18.30;99.90
5588;DHT22;2816;49.778;9.986;2023-07-29T07:41:40;18.30;99.90
5588;DHT22;2816;49.778;9.986;2023-07-29T07:44:07;18.30;99.90
5588;DHT22;2816;49.778;9.986;2023-07-29T07:46:34;18.30;99.90
5588;DHT22;2816;49.778;9.986;2023-07-29T07:49:01;18.40;99.90
5588;DHT22;2816;49.778;9.986;2023-07-29T07:51:28;18.40;99.90
5588;DHT22;2816;49.778;9.986;2023-07-29T07:53:54;18.40;99.90
5588;DHT22;2816;49.778;9.986;2023-07-29T07:56:21;18.50;99.90
5588;DHT22;2816;49.778;9.986;2023-07-29T07:58:50;18.50;99.90
5588;DHT22;2816;49.778;9.986;2023-07-29T08:01:16;18.50;99.90
5588;DHT22;2816;49.778;9.986;2023-07-29T08:03:43;18.60;99.90
5588;DHT22;2816;49.778;9.986;2023-07-29T08:06:10;18.60;99.90
5588;DHT22;2816;49.778;9.986;2023-07-29T08:08:37;18.60;99.90
5588;DHT22;2816;49.778;9.986;2023-07-29T08:11:04;18.60;99.90
5588;DHT22;2816;49.778;9.986;2023-07-29T08:13:31;18.90;99.90
5588;DHT22;2816;49.778;9.986;2023-07-29T08:15:59;18.90;99.90
5588;DHT22;2816;49.778;9.986;2023-07-29T08:18:26;19.00;99.90
5588;DHT22;2816;49.778;9.986;2023-07-29T08:20:53;19.10;99.90
5588;DHT22;2816;49.778;9.986;2023-07-29T08:23:24;19.10;99.90
5588;DHT22;2816;49.778;9.986;2023-07-29T08:25:52;19.20;99.90
5588;DHT22;2816;49.778;9.986;2023-07-29T08:28:21;19.30;99.90
5588;DHT22;2816;49.778;9.986;2023-07-29T08:30:48;19.40;99.90
5588;DHT22;2816;49.778;9.986;2023-07-29T08:33:17;19.40;99.90
5588;DHT22;2816;49.778;9.986;2023-07-29T08:35:43;19.60;99.90
5588;DHT22;2816;49.778;9.986;2023-07-29T08:38:10;19.70;99.90
5588;DHT22;2816;49.778;9.986;2023-07-29T08:40:42;19.80;99.90
5588;DHT22;2816;49.778;9.986;2023-07-29T08:43:09;19.80;99.90
5588;DHT22;2816;49.778;9.986;2023-07-29T08:45:38;19.70;99.90
5588;DHT22;2816;49.778;9.986;2023-07-29T08:48:09;19.70;99.90
5588;DHT22;2816;49.778;9.986;2023-07-29T08:50:38;19.70;99.90
5588;DHT22;2816;49.778;9.986;2023-07-29T08:53:05;19.80;99.90
5588;DHT22;2816;49.778;9.986;2023-07-29T08:55:33;19.80;99.90
5588;DHT22;2816;49.778;9.986;2023-07-29T08:58:00;19.80;99.90
5588;DHT22;2816;49.778;9.986;2023-07-29T09:00:28;19.80;99.90
5588;DHT22;2816;49.778;9.986;2023-07-29T09:02:54;19.80;99.90
5588;DHT22;2816;49.778;9.986;2023-07-29T09:05:23;19.70;99.90
5588;DHT22;2816;49.778;9.986;2023-07-29T09:07:52;19.80;99.90
5588;DHT22;2816;49.778;9.986;2023-07-29T09:10:22;19.80;99.90
5588;DHT22;2816;49.778;9.986;2023-07-29T09:12:49;19.80;99.90
5588;DHT22;2816;49.778;9.986;2023-07-29T09:15:27;20.00;99.90
5588;DHT22;2816;49.778;9.986;2023-07-29T09:17:56;20.00;99.90
5588;DHT22;2816;49.778;9.986;2023-07-29T09:20:26;20.10;99.90
5588;DHT22;2816;49.778;9.986;2023-07-29T09:22:57;20.10;99.90
5588;DHT22;2816;49.778;9.986;2023-07-29T09:25:26;20.10;99.90
5588;DHT22;2816;49.778;9.986;2023-07-29T09:27:58;20.10;99.90
5588;DHT22;2816;49.778;9.986;2023-07-29T09:30:25;20.00;99.90
5588;DHT22;2816;49.778;9.986;2023-07-29T09:32:55;20.00;99.90
5588;DHT22;2816;49.778;9.986;2023-07-29T09:35:23;20.00;99.90
5588;DHT22;2816;49.778;9.986;2023-07-29T09:37:50;20.00;99.90
5588;DHT22;2816;49.778;9.986;2023-07-29T09:40:20;20.00;99.90
5588;DHT22;2816;49.778;9.986;2023-07-29T09:42:50;20.00;99.90
5588;DHT22;2816;49.778;9.986;2023-07-29T09:45:21;20.00;99.90
5588;DHT22;2816;49.778;9.986;2023-07-29T09:47:49;20.00;99.90
5588;DHT22;2816;49.778;9.986;2023-07-29T09:50:16;20.00;99.90
5588;DHT22;2816;49.778;9.986;2023-07-29T09:52:44;20.00;99.90
5588;DHT22;2816;49.778;9.986;2023-07-29T09:55:12;20.00;99.90
5588;DHT22;2816;49.778;9.986;2023-07-29T09:57:41;20.10;99.90
5588;DHT22;2816;49.778;9.986;2023-07-29T10:00:11;20.30;99.90
5588;DHT22;2816;49.778;9.986;2023-07-29T10:02:40;20.40;99.90
5588;DHT22;2816;49.778;9.986;2023-07-29T10:05:08;20.50;99.90
5588;DHT22;2816;49.778;9.986;2023-07-29T10:07:36;20.60;99.90
5588;DHT22;2816;49.778;9.986;2023-07-29T10:10:05;20.70;99.90
5588;DHT22;2816;49.778;9.986;2023-07-29T10:12:33;20.80;99.90
5588;DHT22;2816;49.778;9.986;2023-07-29T10:15:04;20.90;99.90
5588;DHT22;2816;49.778;9.986;2023-07-29T10:17:34;21.00;99.90
5588;DHT22;2816;49.778;9.986;2023-07-29T10:20:02;21.00;99.90
5588;DHT22;2816;49.778;9.986;2023-07-29T10:22:36;21.10;99.90
5588;DHT22;2816;49.778;9.986;2023-07-29T10:25:04;21.20;99.90
5588;DHT22;2816;49.778;9.986;2023-07-29T10:27:38;21.30;99.90
5588;DHT22;2816;49.778;9.986;2023-07-29T10:30:11;21.40;99.90
5588;DHT22;2816;49.778;9.986;2023-07-29T10:32:39;21.40;99.90
5588;DHT22;2816;49.778;9.986;2023-07-29T10:35:08;21.50;99.90
5588;DHT22;2816;49.778;9.986;2023-07-29T10:37:35;21.60;99.90
5588;DHT22;2816;49.778;9.986;2023-07-29T10:40:07;21.60;99.90
5588;DHT22;2816;49.778;9.986;2023-07-29T10:42:34;21.60;99.90
5588;DHT22;2816;49.778;9.986;2023-07-29T10:45:19;21.70;99.90
5588;DHT22;2816;49.778;9.986;2023-07-29T10:47:46;22.00;99.90
5588;DHT22;2816;49.778;9.986;2023-07-29T10:50:18;22.20;99.90
5588;DHT22;2816;49.778;9.986;2023-07-29T10:52:49;22.20;99.90
5588;DHT22;2816;49.778;9.986;2023-07-29T10:55:28;22.30;99.90
5588;DHT22;2816;49.778;9.986;2023-07-29T10:58:06;22.60;99.90
5588;DHT22;2816;49.778;9.986;2023-07-29T11:00:35;22.80;99.90
5588;DHT22;2816;49.778;9.986;2023-07-29T11:03:03;22.70;99.90
5588;DHT22;2816;49.778;9.986;2023-07-29T11:05:48;22.80;99.90
5588;DHT22;2816;49.778;9.986;2023-07-29T11:08:17;22.90;99.90
5588;DHT22;2816;49.778;9.986;2023-07-29T11:10:43;22.80;99.90
5588;DHT22;2816;49.778;9.986;2023-07-29T11:13:10;22.70;99.90
5588;DHT22;2816;49.778;9.986;2023-07-29T11:15:40;22.90;99.90
5588;DHT22;2816;49.778;9.986;2023-07-29T11:18:09;23.10;99.90
5588;DHT22;2816;49.778;9.986;2023-07-29T11:20:37;23.30;99.90
5588;DHT22;2816;49.778;9.986;2023-07-29T11:23:04;23.50;99.90
5588;DHT22;2816;49.778;9.986;2023-07-29T11:25:32;23.40;99.90
5588;DHT22;2816;49.778;9.986;2023-07-29T11:28:01;23.70;99.90
5588;DHT22;2816;49.778;9.986;2023-07-29T11:30:28;23.60;99.90
5588;DHT22;2816;49.778;9.986;2023-07-29T11:32:58;23.80;99.90
5588;DHT22;2816;49.778;9.986;2023-07-29T11:35:25;23.90;99.90
5588;DHT22;2816;49.778;9.986;2023-07-29T11:37:54;24.10;99.90
5588;DHT22;2816;49.778;9.986;2023-07-29T11:40:22;24.30;99.90
5588;DHT22;2816;49.778;9.986;2023-07-29T11:42:52;24.30;99.90
5588;DHT22;2816;49.778;9.986;2023-07-29T11:45:20;24.40;99.90
5588;DHT22;2816;49.778;9.986;2023-07-29T11:47:47;24.40;99.90
5588;DHT22;2816;49.778;9.986;2023-07-29T11:50:15;24.60;99.90
5588;DHT22;2816;49.778;9.986;2023-07-29T11:52:43;24.80;99.90
5588;DHT22;2816;49.778;9.986;2023-07-29T11:55:12;24.90;99.90
5588;DHT22;2816;49.778;9.986;2023-07-29T11:57:40;25.10;99.90
5588;DHT22;2816;49.778;9.986;2023-07-29T12:00:09;25.00;99.90
5588;DHT22;2816;49.778;9.986;2023-07-29T12:02:38;24.80;99.90
5588;DHT22;2816;49.778;9.986;2023-07-29T12:05:06;24.90;99.90
5588;DHT22;2816;49.778;9.986;2023-07-29T12:07:35;25.00;99.90
5588;DHT22;2816;49.778;9.986;2023-07-29T12:10:02;25.20;99.90
5588;DHT22;2816;49.778;9.986;2023-07-29T12:12:30;25.20;99.90
5588;DHT22;2816;49.778;9.986;2023-07-29T12:14:57;25.30;99.90
5588;DHT22;2816;49.778;9.986;2023-07-29T12:17:24;25.30;99.90
5588;DHT22;2816;49.778;9.986;2023-07-29T12:19:54;25.10;99.90
5588;DHT22;2816;49.778;9.986;2023-07-29T12:22:21;24.70;99.90
5588;DHT22;2816;49.778;9.986;2023-07-29T12:24:51;24.80;99.90
5588;DHT22;2816;49.778;9.986;2023-07-29T12:27:21;24.80;99.90
5588;DHT22;2816;49.778;9.986;2023-07-29T12:29:51;24.70;99.90
5588;DHT22;2816;49.778;9.986;2023-07-29T12:32:18;24.60;99.90
5588;DHT22;2816;49.778;9.986;2023-07-29T12:34:45;24.30;99.90
5588;DHT22;2816;49.778;9.986;2023-07-29T12:37:12;24.30;99.90
5588;DHT22;2816;49.778;9.986;2023-07-29T12:39:40;24.10;99.90
5588;DHT22;2816;49.778;9.986;2023-07-29T12:42:09;23.80;99.90
5588;DHT22;2816;49.778;9.986;2023-07-29T12:44:37;23.60;99.90
5588;DHT22;2816;49.778;9.986;2023-07-29T12:47:06;23.50;99.90
5588;DHT22;2816;49.778;9.986;2023-07-29T12:49:34;23.30;99.90
5588;DHT22;2816;49.778;9.986;2023-07-29T12:52:01;23.10;99.90
5588;DHT22;2816;49.778;9.986;2023-07-29T12:54:28;23.10;99.90
5588;DHT22;2816;49.778;9.986;2023-07-29T12:56:55;23.00;99.90
5588;DHT22;2816;49.778;9.986;2023-07-29T12:59:23;23.00;99.90
5588;DHT22;2816;49.778;9.986;2023-07-29T13:01:50;22.80;99.90
5588;DHT22;2816;49.778;9.986;2023-07-29T13:04:17;22.60;99.90
5588;DHT22;2816;49.778;9.986;2023-07-29T13:06:44;22.50;99.90
5588;DHT22;2816;49.778;9.986;2023-07-29T13:09:10;22.40;99.90
5588;DHT22;2816;49.778;9.986;2023-07-29T13:11:37;22.30;99.90
5588;DHT22;2816;49.778;9.986;2023-07-29T13:14:04;22.20;99.90
5588;DHT22;2816;49.778;9.986;2023-07-29T13:16:32;22.10;99.90
5588;DHT22;2816;49.778;9.986;2023-07-29T13:18:59;22.10;99.90
5588;DHT22;2816;49.778;9.986;2023-07-29T13:21:26;22.10;99.90
5588;DHT22;2816;49.778;9.986;2023-07-29T13:23:53;22.30;99.90
5588;DHT22;2816;49.778;9.986;2023-07-29T13:26:20;22.40;99.90
5588;DHT22;2816;49.778;9.986;2023-07-29T13:28:47;22.70;99.90
5588;DHT22;2816;49.778;9.986;2023-07-29T13:31:14;22.80;99.90
5588;DHT22;2816;49.778;9.986;2023-07-29T13:33:42;23.10;99.90
5588;DHT22;2816;49.778;9.986;2023-07-29T13:36:09;23.30;99.90
5588;DHT22;2816;49.778;9.986;2023-07-29T13:38:36;23.50;99.90
5588;DHT22;2816;49.778;9.986;2023-07-29T13:41:03;23.80;99.90
5588;DHT22;2816;49.778;9.986;2023-07-29T13:43:30;24.00;99.90
5588;DHT22;2816;49.778;9.986;2023-07-29T13:45:57;23.80;99.90
5588;DHT22;2816;49.778;9.986;2023-07-29T13:48:24;24.00;99.90
5588;DHT22;2816;49.778;9.986;2023-07-29T13:50:52;24.20;99.90
5588;DHT22;2816;49.778;9.986;2023-07-29T13:53:19;24.40;99.90
5588;DHT22;2816;49.778;9.986;2023-07-29T13:55:46;24.30;99.90
5588;DHT22;2816;49.778;9.986;2023-07-29T13:58:12;24.60;99.90
5588;DHT22;2816;49.778;9.986;2023-07-29T14:00:39;24.40;99.90
5588;DHT22;2816;49.778;9.986;2023-07-29T14:03:06;24.40;99.90
5588;DHT22;2816;49.778;9.986;2023-07-29T14:05:33;24.50;99.90
5588;DHT22;2816;49.778;9.986;2023-07-29T14:08:01;24.70;99.90
5588;DHT22;2816;49.778;9.986;2023-07-29T14:10:28;24.90;99.90
5588;DHT22;2816;49.778;9.986;2023-07-29T14:12:55;25.10;99.90
5588;DHT22;2816;49.778;9.986;2023-07-29T14:15:22;25.10;99.90
5588;DHT22;2816;49.778;9.986;2023-07-29T14:17:49;25.10;99.90
5588;DHT22;2816;49.778;9.986;2023-07-29T14:20:16;25.50;99.90
5588;DHT22;2816;49.778;9.986;2023-07-29T14:22:43;25.60;99.90
5588;DHT22;2816;49.778;9.986;2023-07-29T14:25:12;26.00;99.90
5588;DHT22;2816;49.778;9.986;2023-07-29T14:27:39;26.40;99.90
5588;DHT22;2816;49.778;9.986;2023-07-29T14:30:07;27.00;99.90
5588;DHT22;2816;49.778;9.986;2023-07-29T14:32:34;26.80;99.90
5588;DHT22;2816;49.778;9.986;2023-07-29T14:35:02;26.80;99.90
5588;DHT22;2816;49.778;9.986;2023-07-29T14:37:29;26.80;99.90
5588;DHT22;2816;49.778;9.986;2023-07-29T14:39:57;26.90;99.90
5588;DHT22;2816;49.778;9.986;2023-07-29T14:42:26;27.10;99.90
5588;DHT22;2816;49.778;9.986;2023-07-29T14:44:54;27.00;99.90
5588;DHT22;2816;49.778;9.986;2023-07-29T14:47:21;26.60;99.90
5588;DHT22;2816;49.778;9.986;2023-07-29T14:49:47;26.70;99.90
5588;DHT22;2816;49.778;9.986;2023-07-29T14:52:14;26.90;99.90
5588;DHT22;2816;49.778;9.986;2023-07-29T14:54:41;27.10;99.90
5588;DHT22;2816;49.778;9.986;2023-07-29T14:57:10;27.20;99.90
5588;DHT22;2816;49.778;9.986;2023-07-29T14:59:38;27.20;99.90
5588;DHT22;2816;49.778;9.986;2023-07-29T15:02:06;27.20;99.90
5588;DHT22;2816;49.778;9.986;2023-07-29T15:04:33;27.20;99.90
5588;DHT22;2816;49.778;9.986;2023-07-29T15:07:01;27.10;99.90
5588;DHT22;2816;49.778;9.986;2023-07-29T15:09:28;27.00;99.90
5588;DHT22;2816;49.778;9.986;2023-07-29T15:11:56;27.00;99.90
5588;DHT22;2816;49.778;9.986;2023-07-29T15:14:22;27.40;99.90
5588;DHT22;2816;49.778;9.986;2023-07-29T15:16:51;27.10;99.90
5588;DHT22;2816;49.778;9.986;2023-07-29T15:19:18;27.10;99.90
5588;DHT22;2816;49.778;9.986;2023-07-29T15:21:44;27.10;99.90
5588;DHT22;2816;49.778;9.986;2023-07-29T15:24:11;27.10;99.90
5588;DHT22;2816;49.778;9.986;2023-07-29T15:26:38;27.00;99.90
5588;DHT22;2816;49.778;9.986;2023-07-29T15:29:05;27.20;99.90
5588;DHT22;2816;49.778;9.986;2023-07-29T15:31:33;27.10;99.90
5588;DHT22;2816;49.778;9.986;2023-07-29T15:34:01;26.70;99.90
5588;DHT22;2816;49.778;9.986;2023-07-29T15:36:28;27.00;99.90
5588;DHT22;2816;49.778;9.986;2023-07-29T15:38:55;27.10;99.90
5588;DHT22;2816;49.778;9.986;2023-07-29T15:41:22;26.80;99.90
5588;DHT22;2816;49.778;9.986;2023-07-29T15:43:49;26.90;99.90
5588;DHT22;2816;49.778;9.986;2023-07-29T15:46:16;27.00;99.90
5588;DHT22;2816;49.778;9.986;2023-07-29T15:48:43;27.10;99.90
5588;DHT22;2816;49.778;9.986;2023-07-29T15:51:11;27.40;99.90
5588;DHT22;2816;49.778;9.986;2023-07-29T15:53:38;27.00;99.90
5588;DHT22;2816;49.778;9.986;2023-07-29T15:56:05;26.80;99.80
5588;DHT22;2816;49.778;9.986;2023-07-29T15:58:32;26.70;99.90
5588;DHT22;2816;49.778;9.986;2023-07-29T16:00:59;26.70;99.90
5588;DHT22;2816;49.778;9.986;2023-07-29T16:03:26;26.80;99.90
5588;DHT22;2816;49.778;9.986;2023-07-29T16:05:52;27.00;99.90